Terminal Aerodrome Forecast
Issued by NWS Grand Forks, ND

Home | Current Version | Previous Version | Text Only | Print | Product List | Glossary Off
Versions: 1 2 3 4 5 6 7 8 9 10 11 12 13 14 15

000
FTUS43 KFGF 220520
TAFFAR
TAF
KFAR 220520Z 2206/2306 16005KT P6SM FEW200
     FM221000 16005KT P6SM SCT045
     FM230000 13006KT P6SM SCT040
     FM230500 12006KT P6SM SCT250=

USA.gov is the U.S. government's official web portal to all federal, state and local government web resources and services.